sensor_id;sensor_type;location;lat;lon;timestamp;P1;durP1;ratioP1;P2;durP2;ratioP2
74510;SDS011;62991;50.040;18.400;2022-12-05T00:00:52;28.40;;;10.15;;
74510;SDS011;62991;50.040;18.400;2022-12-05T00:03:54;25.60;;;9.50;;
74510;SDS011;62991;50.040;18.400;2022-12-05T00:06:57;20.98;;;8.70;;
74510;SDS011;62991;50.040;18.400;2022-12-05T00:09:58;19.30;;;8.23;;
74510;SDS011;62991;50.040;18.400;2022-12-05T00:12:58;23.38;;;8.57;;
74510;SDS011;62991;50.040;18.400;2022-12-05T00:15:59;20.63;;;7.88;;
74510;SDS011;62991;50.040;18.400;2022-12-05T00:19:00;18.77;;;8.23;;
74510;SDS011;62991;50.040;18.400;2022-12-05T00:22:01;19.33;;;8.52;;
74510;SDS011;62991;50.040;18.400;2022-12-05T00:25:03;18.17;;;7.22;;
74510;SDS011;62991;50.040;18.400;2022-12-05T00:28:05;20.65;;;7.70;;
74510;SDS011;62991;50.040;18.400;2022-12-05T00:31:07;26.48;;;8.25;;
74510;SDS011;62991;50.040;18.400;2022-12-05T00:34:10;27.27;;;10.60;;
74510;SDS011;62991;50.040;18.400;2022-12-05T00:37:10;25.65;;;9.70;;
74510;SDS011;62991;50.040;18.400;2022-12-05T00:40:11;29.25;;;11.68;;
74510;SDS011;62991;50.040;18.400;2022-12-05T00:43:12;29.27;;;10.13;;
74510;SDS011;62991;50.040;18.400;2022-12-05T00:46:14;27.60;;;10.43;;
74510;SDS011;62991;50.040;18.400;2022-12-05T00:49:16;23.38;;;10.32;;
74510;SDS011;62991;50.040;18.400;2022-12-05T00:52:16;29.83;;;11.43;;
74510;SDS011;62991;50.040;18.400;2022-12-05T00:55:17;27.77;;;11.02;;
74510;SDS011;62991;50.040;18.400;2022-12-05T00:58:18;22.23;;;8.70;;
74510;SDS011;62991;50.040;18.400;2022-12-05T01:04:27;14.32;;;5.72;;
74510;SDS011;62991;50.040;18.400;2022-12-05T01:07:28;20.83;;;7.32;;
74510;SDS011;62991;50.040;18.400;2022-12-05T01:10:28;18.77;;;7.93;;
74510;SDS011;62991;50.040;18.400;2022-12-05T01:13:29;18.17;;;7.88;;
74510;SDS011;62991;50.040;18.400;2022-12-05T01:16:34;16.70;;;7.03;;
74510;SDS011;62991;50.040;18.400;2022-12-05T01:19:36;22.58;;;7.22;;
74510;SDS011;62991;50.040;18.400;2022-12-05T01:22:37;15.30;;;7.07;;
74510;SDS011;62991;50.040;18.400;2022-12-05T01:25:41;25.27;;;9.50;;
74510;SDS011;62991;50.040;18.400;2022-12-05T01:28:43;21.63;;;8.00;;
74510;SDS011;62991;50.040;18.400;2022-12-05T01:31:43;22.48;;;7.43;;
74510;SDS011;62991;50.040;18.400;2022-12-05T01:34:45;17.08;;;7.95;;
74510;SDS011;62991;50.040;18.400;2022-12-05T01:37:45;17.05;;;7.30;;
74510;SDS011;62991;50.040;18.400;2022-12-05T01:40:46;21.52;;;8.45;;
74510;SDS011;62991;50.040;18.400;2022-12-05T01:47:07;19.02;;;7.00;;
74510;SDS011;62991;50.040;18.400;2022-12-05T01:50:07;17.63;;;8.00;;
74510;SDS011;62991;50.040;18.400;2022-12-05T01:53:08;15.50;;;7.80;;
74510;SDS011;62991;50.040;18.400;2022-12-05T01:56:10;18.80;;;7.47;;
74510;SDS011;62991;50.040;18.400;2022-12-05T01:59:11;17.85;;;7.60;;
74510;SDS011;62991;50.040;18.400;2022-12-05T02:02:13;22.20;;;7.15;;
74510;SDS011;62991;50.040;18.400;2022-12-05T02:05:15;20.50;;;7.53;;
74510;SDS011;62991;50.040;18.400;2022-12-05T02:08:19;19.60;;;6.97;;
74510;SDS011;62991;50.040;18.400;2022-12-05T02:11:20;21.60;;;8.40;;
74510;SDS011;62991;50.040;18.400;2022-12-05T02:17:59;19.60;;;7.88;;
74510;SDS011;62991;50.040;18.400;2022-12-05T02:44:02;22.52;;;8.90;;
74510;SDS011;62991;50.040;18.400;2022-12-05T02:47:21;21.38;;;7.07;;
74510;SDS011;62991;50.040;18.400;2022-12-05T02:50:28;18.42;;;7.72;;
74510;SDS011;62991;50.040;18.400;2022-12-05T02:53:33;25.65;;;9.27;;
74510;SDS011;62991;50.040;18.400;2022-12-05T02:56:36;19.60;;;7.13;;
74510;SDS011;62991;50.040;18.400;2022-12-05T02:59:37;16.15;;;7.18;;
74510;SDS011;62991;50.040;18.400;2022-12-05T03:02:38;17.83;;;7.70;;
74510;SDS011;62991;50.040;18.400;2022-12-05T03:05:42;16.17;;;6.63;;
74510;SDS011;62991;50.040;18.400;2022-12-05T03:08:58;22.95;;;8.35;;
74510;SDS011;62991;50.040;18.400;2022-12-05T03:12:11;20.17;;;7.70;;
74510;SDS011;62991;50.040;18.400;2022-12-05T03:15:24;18.90;;;7.60;;
74510;SDS011;62991;50.040;18.400;2022-12-05T03:18:49;20.55;;;8.45;;
74510;SDS011;62991;50.040;18.400;2022-12-05T03:21:59;23.70;;;9.23;;
74510;SDS011;62991;50.040;18.400;2022-12-05T03:25:05;23.92;;;9.43;;
74510;SDS011;62991;50.040;18.400;2022-12-05T03:28:15;24.77;;;8.68;;
74510;SDS011;62991;50.040;18.400;2022-12-05T03:31:44;26.17;;;9.70;;
74510;SDS011;62991;50.040;18.400;2022-12-05T03:35:21;23.08;;;8.23;;
74510;SDS011;62991;50.040;18.400;2022-12-05T03:42:11;18.63;;;7.13;;
74510;SDS011;62991;50.040;18.400;2022-12-05T03:45:14;16.98;;;8.65;;
74510;SDS011;62991;50.040;18.400;2022-12-05T03:51:27;45.22;;;15.90;;
74510;SDS011;62991;50.040;18.400;2022-12-05T03:54:39;54.22;;;15.40;;
74510;SDS011;62991;50.040;18.400;2022-12-05T03:57:49;33.58;;;11.93;;
74510;SDS011;62991;50.040;18.400;2022-12-05T04:00:56;40.42;;;12.43;;
74510;SDS011;62991;50.040;18.400;2022-12-05T04:04:01;48.45;;;14.20;;
74510;SDS011;62991;50.040;18.400;2022-12-05T04:07:07;36.45;;;12.27;;
74510;SDS011;62991;50.040;18.400;2022-12-05T04:10:10;33.80;;;10.68;;
74510;SDS011;62991;50.040;18.400;2022-12-05T04:13:16;41.70;;;15.57;;
74510;SDS011;62991;50.040;18.400;2022-12-05T04:19:43;24.15;;;9.88;;
74510;SDS011;62991;50.040;18.400;2022-12-05T04:23:07;21.83;;;8.82;;
74510;SDS011;62991;50.040;18.400;2022-12-05T04:26:13;28.52;;;10.48;;
74510;SDS011;62991;50.040;18.400;2022-12-05T04:29:26;21.85;;;8.63;;
74510;SDS011;62991;50.040;18.400;2022-12-05T04:35:59;24.20;;;9.23;;
74510;SDS011;62991;50.040;18.400;2022-12-05T04:39:06;21.65;;;8.55;;
74510;SDS011;62991;50.040;18.400;2022-12-05T04:42:15;26.10;;;10.48;;
74510;SDS011;62991;50.040;18.400;2022-12-05T04:45:19;22.58;;;8.65;;
74510;SDS011;62991;50.040;18.400;2022-12-05T04:48:24;27.08;;;8.07;;
74510;SDS011;62991;50.040;18.400;2022-12-05T04:51:27;22.30;;;9.90;;
74510;SDS011;62991;50.040;18.400;2022-12-05T04:54:30;22.60;;;9.52;;
74510;SDS011;62991;50.040;18.400;2022-12-05T04:57:44;25.00;;;9.68;;
74510;SDS011;62991;50.040;18.400;2022-12-05T05:04:06;22.75;;;11.23;;
74510;SDS011;62991;50.040;18.400;2022-12-05T05:07:29;34.42;;;10.52;;
74510;SDS011;62991;50.040;18.400;2022-12-05T05:10:32;28.77;;;12.38;;
74510;SDS011;62991;50.040;18.400;2022-12-05T05:13:36;30.40;;;11.20;;
74510;SDS011;62991;50.040;18.400;2022-12-05T05:16:38;34.42;;;12.95;;
74510;SDS011;62991;50.040;18.400;2022-12-05T05:19:40;36.22;;;12.85;;
74510;SDS011;62991;50.040;18.400;2022-12-05T05:22:40;33.13;;;12.32;;
74510;SDS011;62991;50.040;18.400;2022-12-05T05:25:41;34.88;;;13.25;;
74510;SDS011;62991;50.040;18.400;2022-12-05T05:28:42;37.47;;;13.48;;
74510;SDS011;62991;50.040;18.400;2022-12-05T05:31:43;37.33;;;14.40;;
74510;SDS011;62991;50.040;18.400;2022-12-05T05:34:44;30.60;;;11.77;;
74510;SDS011;62991;50.040;18.400;2022-12-05T05:37:44;37.22;;;13.15;;
74510;SDS011;62991;50.040;18.400;2022-12-05T05:40:45;38.17;;;13.18;;
74510;SDS011;62991;50.040;18.400;2022-12-05T05:43:46;37.42;;;14.57;;
74510;SDS011;62991;50.040;18.400;2022-12-05T05:46:47;44.65;;;14.13;;
74510;SDS011;62991;50.040;18.400;2022-12-05T05:49:48;32.30;;;12.18;;
74510;SDS011;62991;50.040;18.400;2022-12-05T05:52:49;32.95;;;10.57;;
74510;SDS011;62991;50.040;18.400;2022-12-05T05:55:49;30.77;;;9.90;;
74510;SDS011;62991;50.040;18.400;2022-12-05T05:58:54;24.25;;;10.52;;
74510;SDS011;62991;50.040;18.400;2022-12-05T06:02:02;26.95;;;8.77;;
74510;SDS011;62991;50.040;18.400;2022-12-05T06:05:03;31.92;;;10.75;;
74510;SDS011;62991;50.040;18.400;2022-12-05T06:08:04;23.65;;;9.45;;
74510;SDS011;62991;50.040;18.400;2022-12-05T06:11:09;19.98;;;8.05;;
74510;SDS011;62991;50.040;18.400;2022-12-05T06:14:11;23.45;;;8.93;;
74510;SDS011;62991;50.040;18.400;2022-12-05T06:17:11;25.27;;;10.38;;
74510;SDS011;62991;50.040;18.400;2022-12-05T06:20:12;22.23;;;9.48;;
74510;SDS011;62991;50.040;18.400;2022-12-05T06:23:13;23.35;;;10.00;;
74510;SDS011;62991;50.040;18.400;2022-12-05T06:26:14;24.65;;;8.88;;
74510;SDS011;62991;50.040;18.400;2022-12-05T06:29:17;24.52;;;9.80;;
74510;SDS011;62991;50.040;18.400;2022-12-05T06:32:17;26.67;;;10.32;;
74510;SDS011;62991;50.040;18.400;2022-12-05T06:35:18;29.17;;;10.05;;
74510;SDS011;62991;50.040;18.400;2022-12-05T06:38:19;30.23;;;10.43;;
74510;SDS011;62991;50.040;18.400;2022-12-05T06:41:19;24.55;;;10.23;;
74510;SDS011;62991;50.040;18.400;2022-12-05T06:44:20;25.88;;;9.23;;
74510;SDS011;62991;50.040;18.400;2022-12-05T06:47:21;29.35;;;10.18;;
74510;SDS011;62991;50.040;18.400;2022-12-05T06:50:21;20.95;;;9.27;;
74510;SDS011;62991;50.040;18.400;2022-12-05T06:53:22;23.52;;;8.90;;
74510;SDS011;62991;50.040;18.400;2022-12-05T06:56:23;21.08;;;10.35;;
74510;SDS011;62991;50.040;18.400;2022-12-05T06:59:23;22.85;;;9.00;;
74510;SDS011;62991;50.040;18.400;2022-12-05T07:02:24;23.08;;;9.13;;
74510;SDS011;62991;50.040;18.400;2022-12-05T07:05:25;22.40;;;8.93;;
74510;SDS011;62991;50.040;18.400;2022-12-05T07:08:25;22.85;;;9.55;;
74510;SDS011;62991;50.040;18.400;2022-12-05T07:11:26;27.80;;;10.30;;
74510;SDS011;62991;50.040;18.400;2022-12-05T07:14:26;20.13;;;7.63;;
74510;SDS011;62991;50.040;18.400;2022-12-05T07:17:27;25.08;;;8.57;;
74510;SDS011;62991;50.040;18.400;2022-12-05T07:20:28;19.70;;;8.43;;
74510;SDS011;62991;50.040;18.400;2022-12-05T07:23:28;22.70;;;9.52;;
74510;SDS011;62991;50.040;18.400;2022-12-05T07:26:29;25.27;;;9.90;;
74510;SDS011;62991;50.040;18.400;2022-12-05T07:29:30;21.83;;;8.68;;
74510;SDS011;62991;50.040;18.400;2022-12-05T07:32:31;28.60;;;8.90;;
74510;SDS011;62991;50.040;18.400;2022-12-05T07:35:33;20.65;;;8.73;;
74510;SDS011;62991;50.040;18.400;2022-12-05T07:38:33;19.55;;;8.40;;
74510;SDS011;62991;50.040;18.400;2022-12-05T07:41:34;22.35;;;9.13;;
74510;SDS011;62991;50.040;18.400;2022-12-05T07:44:35;32.53;;;11.60;;
74510;SDS011;62991;50.040;18.400;2022-12-05T07:47:35;106.35;;;27.90;;
74510;SDS011;62991;50.040;18.400;2022-12-05T07:50:36;148.82;;;41.92;;
74510;SDS011;62991;50.040;18.400;2022-12-05T07:53:37;99.75;;;30.42;;
74510;SDS011;62991;50.040;18.400;2022-12-05T07:56:40;66.35;;;22.60;;
74510;SDS011;62991;50.040;18.400;2022-12-05T07:59:41;69.75;;;24.70;;
74510;SDS011;62991;50.040;18.400;2022-12-05T08:02:41;39.33;;;16.77;;
74510;SDS011;62991;50.040;18.400;2022-12-05T08:05:42;45.05;;;20.25;;
74510;SDS011;62991;50.040;18.400;2022-12-05T08:08:43;37.42;;;20.17;;
74510;SDS011;62991;50.040;18.400;2022-12-05T08:11:44;40.63;;;17.27;;
74510;SDS011;62991;50.040;18.400;2022-12-05T08:14:45;43.65;;;19.90;;
74510;SDS011;62991;50.040;18.400;2022-12-05T08:17:46;45.90;;;19.33;;
74510;SDS011;62991;50.040;18.400;2022-12-05T08:20:46;83.65;;;34.45;;
74510;SDS011;62991;50.040;18.400;2022-12-05T08:23:47;59.75;;;28.05;;
74510;SDS011;62991;50.040;18.400;2022-12-05T08:26:48;79.32;;;35.08;;
74510;SDS011;62991;50.040;18.400;2022-12-05T08:29:48;63.42;;;26.35;;
74510;SDS011;62991;50.040;18.400;2022-12-05T08:32:49;57.95;;;24.55;;
74510;SDS011;62991;50.040;18.400;2022-12-05T08:35:49;60.67;;;21.55;;
74510;SDS011;62991;50.040;18.400;2022-12-05T08:38:54;51.15;;;25.15;;
74510;SDS011;62991;50.040;18.400;2022-12-05T08:41:56;45.50;;;22.92;;
74510;SDS011;62991;50.040;18.400;2022-12-05T08:44:57;47.03;;;19.65;;
74510;SDS011;62991;50.040;18.400;2022-12-05T08:47:57;46.00;;;19.17;;
74510;SDS011;62991;50.040;18.400;2022-12-05T08:50:58;34.63;;;14.68;;
74510;SDS011;62991;50.040;18.400;2022-12-05T08:54:03;42.90;;;18.45;;
74510;SDS011;62991;50.040;18.400;2022-12-05T08:57:04;36.03;;;16.90;;
74510;SDS011;62991;50.040;18.400;2022-12-05T09:00:05;37.53;;;14.25;;
74510;SDS011;62991;50.040;18.400;2022-12-05T09:03:08;39.58;;;13.85;;
74510;SDS011;62991;50.040;18.400;2022-12-05T09:06:14;40.83;;;15.60;;
74510;SDS011;62991;50.040;18.400;2022-12-05T09:09:20;38.47;;;17.58;;
74510;SDS011;62991;50.040;18.400;2022-12-05T09:12:20;30.27;;;13.57;;
74510;SDS011;62991;50.040;18.400;2022-12-05T09:15:21;30.30;;;13.38;;
74510;SDS011;62991;50.040;18.400;2022-12-05T09:18:21;33.88;;;14.15;;
74510;SDS011;62991;50.040;18.400;2022-12-05T09:21:24;26.20;;;12.60;;
74510;SDS011;62991;50.040;18.400;2022-12-05T09:24:26;29.90;;;13.65;;
74510;SDS011;62991;50.040;18.400;2022-12-05T09:27:27;32.03;;;12.90;;
74510;SDS011;62991;50.040;18.400;2022-12-05T09:30:28;35.55;;;16.00;;
74510;SDS011;62991;50.040;18.400;2022-12-05T09:33:29;32.28;;;13.38;;
74510;SDS011;62991;50.040;18.400;2022-12-05T09:36:31;36.60;;;13.63;;
74510;SDS011;62991;50.040;18.400;2022-12-05T09:39:32;32.28;;;13.25;;
74510;SDS011;62991;50.040;18.400;2022-12-05T09:42:35;36.45;;;13.95;;
74510;SDS011;62991;50.040;18.400;2022-12-05T09:45:39;37.05;;;13.55;;
74510;SDS011;62991;50.040;18.400;2022-12-05T09:48:50;30.17;;;11.75;;
74510;SDS011;62991;50.040;18.400;2022-12-05T09:51:51;36.55;;;12.40;;
74510;SDS011;62991;50.040;18.400;2022-12-05T09:55:05;26.50;;;11.18;;
74510;SDS011;62991;50.040;18.400;2022-12-05T10:01:43;26.13;;;10.55;;
74510;SDS011;62991;50.040;18.400;2022-12-05T10:05:42;32.90;;;12.23;;
74510;SDS011;62991;50.040;18.400;2022-12-05T10:08:25;31.30;;;12.88;;
74510;SDS011;62991;50.040;18.400;2022-12-05T10:11:58;34.78;;;13.25;;
74510;SDS011;62991;50.040;18.400;2022-12-05T10:18:19;32.70;;;13.80;;
74510;SDS011;62991;50.040;18.400;2022-12-05T10:21:44;28.00;;;12.10;;
74510;SDS011;62991;50.040;18.400;2022-12-05T10:24:53;37.42;;;13.07;;
74510;SDS011;62991;50.040;18.400;2022-12-05T10:28:00;32.03;;;13.50;;
74510;SDS011;62991;50.040;18.400;2022-12-05T10:31:09;27.58;;;11.27;;
74510;SDS011;62991;50.040;18.400;2022-12-05T10:37:28;34.50;;;12.50;;
74510;SDS011;62991;50.040;18.400;2022-12-05T10:40:42;37.17;;;13.73;;
74510;SDS011;62991;50.040;18.400;2022-12-05T10:43:46;32.72;;;12.77;;
74510;SDS011;62991;50.040;18.400;2022-12-05T10:46:48;32.70;;;12.80;;
74510;SDS011;62991;50.040;18.400;2022-12-05T10:49:48;37.67;;;14.95;;
74510;SDS011;62991;50.040;18.400;2022-12-05T10:52:50;29.83;;;12.38;;
74510;SDS011;62991;50.040;18.400;2022-12-05T10:55:52;31.98;;;13.35;;
74510;SDS011;62991;50.040;18.400;2022-12-05T10:58:54;33.88;;;13.90;;
74510;SDS011;62991;50.040;18.400;2022-12-05T11:01:57;28.98;;;13.63;;
74510;SDS011;62991;50.040;18.400;2022-12-05T11:04:58;28.63;;;12.10;;
74510;SDS011;62991;50.040;18.400;2022-12-05T11:07:58;32.10;;;13.00;;
74510;SDS011;62991;50.040;18.400;2022-12-05T11:14:19;27.77;;;11.73;;
74510;SDS011;62991;50.040;18.400;2022-12-05T11:23:26;31.05;;;12.07;;
74510;SDS011;62991;50.040;18.400;2022-12-05T11:26:35;37.95;;;13.60;;
74510;SDS011;62991;50.040;18.400;2022-12-05T11:29:37;35.15;;;11.77;;
74510;SDS011;62991;50.040;18.400;2022-12-05T11:32:38;41.42;;;17.45;;
74510;SDS011;62991;50.040;18.400;2022-12-05T11:35:39;54.67;;;22.95;;
74510;SDS011;62991;50.040;18.400;2022-12-05T11:38:40;68.90;;;25.77;;
74510;SDS011;62991;50.040;18.400;2022-12-05T11:41:52;65.07;;;25.10;;
74510;SDS011;62991;50.040;18.400;2022-12-05T11:45:40;52.60;;;22.25;;
74510;SDS011;62991;50.040;18.400;2022-12-05T11:55:14;48.70;;;19.35;;
74510;SDS011;62991;50.040;18.400;2022-12-05T12:01:45;55.90;;;21.33;;
74510;SDS011;62991;50.040;18.400;2022-12-05T12:11:26;51.72;;;19.45;;
74510;SDS011;62991;50.040;18.400;2022-12-05T12:17:45;51.33;;;20.02;;
74510;SDS011;62991;50.040;18.400;2022-12-05T12:40:44;68.45;;;25.05;;
74510;SDS011;62991;50.040;18.400;2022-12-05T12:50:53;117.95;;;45.47;;
74510;SDS011;62991;50.040;18.400;2022-12-05T13:03:53;64.10;;;28.45;;
74510;SDS011;62991;50.040;18.400;2022-12-05T13:07:09;63.30;;;26.92;;
74510;SDS011;62991;50.040;18.400;2022-12-05T13:10:20;57.03;;;21.42;;
74510;SDS011;62991;50.040;18.400;2022-12-05T13:13:33;55.47;;;21.38;;
74510;SDS011;62991;50.040;18.400;2022-12-05T13:16:39;54.28;;;21.85;;
74510;SDS011;62991;50.040;18.400;2022-12-05T13:19:48;56.22;;;20.67;;
74510;SDS011;62991;50.040;18.400;2022-12-05T13:22:50;53.47;;;19.30;;
74510;SDS011;62991;50.040;18.400;2022-12-05T13:25:53;53.47;;;20.88;;
74510;SDS011;62991;50.040;18.400;2022-12-05T13:28:56;56.28;;;20.80;;
74510;SDS011;62991;50.040;18.400;2022-12-05T13:32:03;48.10;;;18.17;;
74510;SDS011;62991;50.040;18.400;2022-12-05T13:38:12;51.17;;;21.23;;
74510;SDS011;62991;50.040;18.400;2022-12-05T13:41:51;51.92;;;20.85;;
74510;SDS011;62991;50.040;18.400;2022-12-05T13:45:14;52.90;;;20.65;;
74510;SDS011;62991;50.040;18.400;2022-12-05T13:48:20;53.13;;;22.77;;
74510;SDS011;62991;50.040;18.400;2022-12-05T13:51:26;58.97;;;20.23;;
74510;SDS011;62991;50.040;18.400;2022-12-05T13:54:40;54.72;;;20.73;;
74510;SDS011;62991;50.040;18.400;2022-12-05T13:57:44;54.65;;;20.77;;
74510;SDS011;62991;50.040;18.400;2022-12-05T14:00:46;50.75;;;20.00;;
74510;SDS011;62991;50.040;18.400;2022-12-05T14:09:51;54.75;;;20.40;;
74510;SDS011;62991;50.040;18.400;2022-12-05T14:12:59;56.75;;;23.27;;
74510;SDS011;62991;50.040;18.400;2022-12-05T14:16:47;58.78;;;21.90;;
74510;SDS011;62991;50.040;18.400;2022-12-05T14:32:59;60.97;;;24.08;;
74510;SDS011;62991;50.040;18.400;2022-12-05T14:36:04;58.67;;;23.15;;
74510;SDS011;62991;50.040;18.400;2022-12-05T14:39:19;63.75;;;24.75;;
74510;SDS011;62991;50.040;18.400;2022-12-05T14:42:36;63.50;;;25.98;;
74510;SDS011;62991;50.040;18.400;2022-12-05T14:45:44;55.88;;;22.05;;
74510;SDS011;62991;50.040;18.400;2022-12-05T14:52:40;67.88;;;25.55;;
74510;SDS011;62991;50.040;18.400;2022-12-05T14:55:43;79.93;;;29.75;;
74510;SDS011;62991;50.040;18.400;2022-12-05T14:59:00;76.97;;;28.13;;
74510;SDS011;62991;50.040;18.400;2022-12-05T15:02:10;62.38;;;25.27;;
74510;SDS011;62991;50.040;18.400;2022-12-05T15:05:22;52.42;;;20.50;;
74510;SDS011;62991;50.040;18.400;2022-12-05T15:08:28;61.08;;;22.80;;
74510;SDS011;62991;50.040;18.400;2022-12-05T15:11:34;77.20;;;26.00;;
74510;SDS011;62991;50.040;18.400;2022-12-05T15:15:00;73.15;;;28.55;;
74510;SDS011;62991;50.040;18.400;2022-12-05T15:21:45;66.35;;;23.10;;
74510;SDS011;62991;50.040;18.400;2022-12-05T15:24:49;78.30;;;26.90;;
74510;SDS011;62991;50.040;18.400;2022-12-05T15:27:54;72.35;;;27.25;;
74510;SDS011;62991;50.040;18.400;2022-12-05T15:31:05;64.55;;;26.95;;
74510;SDS011;62991;50.040;18.400;2022-12-05T15:34:20;91.07;;;33.72;;
74510;SDS011;62991;50.040;18.400;2022-12-05T15:40:56;112.18;;;40.60;;
74510;SDS011;62991;50.040;18.400;2022-12-05T15:43:57;99.60;;;38.30;;
74510;SDS011;62991;50.040;18.400;2022-12-05T15:46:58;108.22;;;39.70;;
74510;SDS011;62991;50.040;18.400;2022-12-05T15:49:59;81.22;;;31.35;;
74510;SDS011;62991;50.040;18.400;2022-12-05T15:53:04;78.03;;;27.65;;
74510;SDS011;62991;50.040;18.400;2022-12-05T16:02:20;50.92;;;18.92;;
74510;SDS011;62991;50.040;18.400;2022-12-05T16:08:42;48.13;;;20.45;;
74510;SDS011;62991;50.040;18.400;2022-12-05T16:11:53;54.35;;;18.95;;
74510;SDS011;62991;50.040;18.400;2022-12-05T16:14:54;49.08;;;18.90;;
74510;SDS011;62991;50.040;18.400;2022-12-05T16:18:00;53.92;;;21.13;;
74510;SDS011;62991;50.040;18.400;2022-12-05T16:21:03;60.63;;;21.92;;
74510;SDS011;62991;50.040;18.400;2022-12-05T16:24:29;57.83;;;22.58;;
74510;SDS011;62991;50.040;18.400;2022-12-05T16:27:34;69.05;;;23.08;;
74510;SDS011;62991;50.040;18.400;2022-12-05T16:30:35;60.30;;;23.85;;
74510;SDS011;62991;50.040;18.400;2022-12-05T16:33:36;66.22;;;24.98;;
74510;SDS011;62991;50.040;18.400;2022-12-05T16:36:42;61.75;;;24.73;;
74510;SDS011;62991;50.040;18.400;2022-12-05T16:39:46;68.88;;;28.13;;
74510;SDS011;62991;50.040;18.400;2022-12-05T16:42:47;77.28;;;28.10;;
74510;SDS011;62991;50.040;18.400;2022-12-05T16:52:20;54.95;;;23.02;;
74510;SDS011;62991;50.040;18.400;2022-12-05T16:55:21;55.08;;;21.33;;
74510;SDS011;62991;50.040;18.400;2022-12-05T16:58:22;49.38;;;21.58;;
74510;SDS011;62991;50.040;18.400;2022-12-05T17:01:25;52.35;;;20.92;;
74510;SDS011;62991;50.040;18.400;2022-12-05T17:04:26;53.28;;;21.08;;
74510;SDS011;62991;50.040;18.400;2022-12-05T17:07:27;54.97;;;21.40;;
74510;SDS011;62991;50.040;18.400;2022-12-05T17:10:28;51.88;;;20.85;;
74510;SDS011;62991;50.040;18.400;2022-12-05T17:13:29;63.20;;;21.30;;
74510;SDS011;62991;50.040;18.400;2022-12-05T17:16:31;55.17;;;20.05;;
74510;SDS011;62991;50.040;18.400;2022-12-05T17:19:32;55.28;;;19.52;;
74510;SDS011;62991;50.040;18.400;2022-12-05T17:22:32;52.53;;;21.35;;
74510;SDS011;62991;50.040;18.400;2022-12-05T17:25:33;55.65;;;19.23;;
74510;SDS011;62991;50.040;18.400;2022-12-05T17:28:36;56.55;;;19.48;;
74510;SDS011;62991;50.040;18.400;2022-12-05T17:31:36;42.88;;;19.10;;
74510;SDS011;62991;50.040;18.400;2022-12-05T17:34:37;53.83;;;21.13;;
74510;SDS011;62991;50.040;18.400;2022-12-05T17:37:38;47.78;;;18.52;;
74510;SDS011;62991;50.040;18.400;2022-12-05T17:40:39;49.55;;;18.35;;
74510;SDS011;62991;50.040;18.400;2022-12-05T17:43:40;54.30;;;21.50;;
74510;SDS011;62991;50.040;18.400;2022-12-05T17:46:41;53.75;;;22.23;;
74510;SDS011;62991;50.040;18.400;2022-12-05T17:49:42;54.55;;;21.02;;
74510;SDS011;62991;50.040;18.400;2022-12-05T17:52:44;53.70;;;19.35;;
74510;SDS011;62991;50.040;18.400;2022-12-05T17:55:45;45.08;;;18.58;;
74510;SDS011;62991;50.040;18.400;2022-12-05T17:58:47;49.35;;;19.02;;
74510;SDS011;62991;50.040;18.400;2022-12-05T18:01:48;45.75;;;17.92;;
74510;SDS011;62991;50.040;18.400;2022-12-05T18:04:49;44.88;;;18.23;;
74510;SDS011;62991;50.040;18.400;2022-12-05T18:07:49;55.33;;;20.15;;
74510;SDS011;62991;50.040;18.400;2022-12-05T18:10:50;45.00;;;16.55;;
74510;SDS011;62991;50.040;18.400;2022-12-05T18:13:51;40.95;;;16.98;;
74510;SDS011;62991;50.040;18.400;2022-12-05T18:16:52;48.15;;;17.73;;
74510;SDS011;62991;50.040;18.400;2022-12-05T18:32:28;44.30;;;15.43;;
74510;SDS011;62991;50.040;18.400;2022-12-05T18:35:29;36.45;;;14.73;;
74510;SDS011;62991;50.040;18.400;2022-12-05T18:38:39;56.45;;;18.33;;
74510;SDS011;62991;50.040;18.400;2022-12-05T18:41:41;65.93;;;20.15;;
74510;SDS011;62991;50.040;18.400;2022-12-05T18:44:42;71.30;;;21.50;;
74510;SDS011;62991;50.040;18.400;2022-12-05T18:47:43;38.40;;;14.65;;
74510;SDS011;62991;50.040;18.400;2022-12-05T18:50:43;42.78;;;15.00;;
74510;SDS011;62991;50.040;18.400;2022-12-05T18:53:44;40.60;;;13.65;;
74510;SDS011;62991;50.040;18.400;2022-12-05T18:56:50;33.72;;;13.52;;
74510;SDS011;62991;50.040;18.400;2022-12-05T18:59:51;32.45;;;13.63;;
74510;SDS011;62991;50.040;18.400;2022-12-05T19:02:52;38.80;;;16.40;;
74510;SDS011;62991;50.040;18.400;2022-12-05T19:05:53;47.28;;;15.98;;
74510;SDS011;62991;50.040;18.400;2022-12-05T19:08:54;46.55;;;15.52;;
74510;SDS011;62991;50.040;18.400;2022-12-05T19:11:56;39.33;;;16.05;;
74510;SDS011;62991;50.040;18.400;2022-12-05T19:14:58;46.80;;;17.55;;
74510;SDS011;62991;50.040;18.400;2022-12-05T19:17:58;53.95;;;17.75;;
74510;SDS011;62991;50.040;18.400;2022-12-05T19:20:59;55.70;;;19.80;;
74510;SDS011;62991;50.040;18.400;2022-12-05T19:24:00;48.22;;;18.30;;
74510;SDS011;62991;50.040;18.400;2022-12-05T19:27:01;55.08;;;19.73;;
74510;SDS011;62991;50.040;18.400;2022-12-05T19:30:02;57.72;;;21.55;;
74510;SDS011;62991;50.040;18.400;2022-12-05T19:33:03;59.55;;;20.88;;
74510;SDS011;62991;50.040;18.400;2022-12-05T19:36:05;68.20;;;23.20;;
74510;SDS011;62991;50.040;18.400;2022-12-05T19:42:09;59.42;;;24.58;;
74510;SDS011;62991;50.040;18.400;2022-12-05T19:45:10;80.95;;;33.22;;
74510;SDS011;62991;50.040;18.400;2022-12-05T19:48:10;69.90;;;31.45;;
74510;SDS011;62991;50.040;18.400;2022-12-05T19:51:11;83.00;;;33.60;;
74510;SDS011;62991;50.040;18.400;2022-12-05T19:54:13;91.32;;;37.35;;
74510;SDS011;62991;50.040;18.400;2022-12-05T19:57:16;71.80;;;30.30;;
74510;SDS011;62991;50.040;18.400;2022-12-05T20:00:17;80.65;;;33.10;;
74510;SDS011;62991;50.040;18.400;2022-12-05T20:03:18;92.00;;;35.08;;
74510;SDS011;62991;50.040;18.400;2022-12-05T20:06:19;80.00;;;29.95;;
74510;SDS011;62991;50.040;18.400;2022-12-05T20:09:21;73.05;;;30.40;;
74510;SDS011;62991;50.040;18.400;2022-12-05T20:12:22;73.80;;;29.10;;
74510;SDS011;62991;50.040;18.400;2022-12-05T20:15:22;73.03;;;28.20;;
74510;SDS011;62991;50.040;18.400;2022-12-05T20:18:23;70.72;;;27.33;;
74510;SDS011;62991;50.040;18.400;2022-12-05T20:21:24;64.15;;;26.98;;
74510;SDS011;62991;50.040;18.400;2022-12-05T20:24:26;63.08;;;24.77;;
74510;SDS011;62991;50.040;18.400;2022-12-05T20:27:26;71.82;;;26.23;;
74510;SDS011;62991;50.040;18.400;2022-12-05T20:30:27;74.30;;;26.38;;
74510;SDS011;62991;50.040;18.400;2022-12-05T20:33:28;66.95;;;25.48;;
74510;SDS011;62991;50.040;18.400;2022-12-05T20:36:29;74.63;;;26.20;;
74510;SDS011;62991;50.040;18.400;2022-12-05T20:39:31;62.30;;;24.13;;
74510;SDS011;62991;50.040;18.400;2022-12-05T20:42:32;53.42;;;23.70;;
74510;SDS011;62991;50.040;18.400;2022-12-05T20:45:32;57.15;;;25.00;;
74510;SDS011;62991;50.040;18.400;2022-12-05T20:48:33;59.65;;;25.80;;
74510;SDS011;62991;50.040;18.400;2022-12-05T20:51:34;66.72;;;23.90;;
74510;SDS011;62991;50.040;18.400;2022-12-05T20:54:35;78.32;;;28.75;;